sensor_id;sensor_type;location;lat;lon;timestamp;P1;durP1;ratioP1;P2;durP2;ratioP2
32214;SDS011;18708;53.124;23.190;2024-02-28T00:01:52;29.17;;;19.05;;
32214;SDS011;18708;53.124;23.190;2024-02-28T00:04:18;26.63;;;17.45;;
32214;SDS011;18708;53.124;23.190;2024-02-28T00:06:44;28.92;;;18.60;;
32214;SDS011;18708;53.124;23.190;2024-02-28T00:09:11;34.22;;;18.63;;
32214;SDS011;18708;53.124;23.190;2024-02-28T00:11:45;29.15;;;17.90;;
32214;SDS011;18708;53.124;23.190;2024-02-28T00:14:12;27.98;;;17.45;;
32214;SDS011;18708;53.124;23.190;2024-02-28T00:16:45;28.00;;;18.08;;
32214;SDS011;18708;53.124;23.190;2024-02-28T00:19:12;28.17;;;16.92;;
32214;SDS011;18708;53.124;23.190;2024-02-28T00:21:39;32.15;;;18.20;;
32214;SDS011;18708;53.124;23.190;2024-02-28T00:24:06;29.10;;;17.73;;
32214;SDS011;18708;53.124;23.190;2024-02-28T00:26:32;30.48;;;18.13;;
32214;SDS011;18708;53.124;23.190;2024-02-28T00:28:57;30.23;;;17.38;;
32214;SDS011;18708;53.124;23.190;2024-02-28T00:31:23;31.70;;;17.90;;
32214;SDS011;18708;53.124;23.190;2024-02-28T00:33:49;27.40;;;16.88;;
32214;SDS011;18708;53.124;23.190;2024-02-28T00:36:14;28.17;;;16.88;;
32214;SDS011;18708;53.124;23.190;2024-02-28T00:38:40;31.90;;;18.23;;
32214;SDS011;18708;53.124;23.190;2024-02-28T00:41:06;30.30;;;17.58;;
32214;SDS011;18708;53.124;23.190;2024-02-28T00:43:32;28.83;;;17.60;;
32214;SDS011;18708;53.124;23.190;2024-02-28T00:45:58;27.45;;;17.15;;
32214;SDS011;18708;53.124;23.190;2024-02-28T00:48:24;31.20;;;17.05;;
32214;SDS011;18708;53.124;23.190;2024-02-28T00:50:50;28.17;;;18.02;;
32214;SDS011;18708;53.124;23.190;2024-02-28T00:53:17;28.25;;;17.52;;
32214;SDS011;18708;53.124;23.190;2024-02-28T00:55:43;24.75;;;16.80;;
32214;SDS011;18708;53.124;23.190;2024-02-28T00:58:08;25.75;;;16.80;;
32214;SDS011;18708;53.124;23.190;2024-02-28T01:00:35;29.65;;;18.42;;
32214;SDS011;18708;53.124;23.190;2024-02-28T01:03:01;30.40;;;17.75;;
32214;SDS011;18708;53.124;23.190;2024-02-28T01:05:29;25.98;;;16.88;;
32214;SDS011;18708;53.124;23.190;2024-02-28T01:07:56;27.90;;;18.48;;
32214;SDS011;18708;53.124;23.190;2024-02-28T01:10:21;31.30;;;18.25;;
32214;SDS011;18708;53.124;23.190;2024-02-28T01:12:48;28.20;;;17.27;;
32214;SDS011;18708;53.124;23.190;2024-02-28T01:15:13;28.65;;;17.38;;
32214;SDS011;18708;53.124;23.190;2024-02-28T01:17:39;30.90;;;18.02;;
32214;SDS011;18708;53.124;23.190;2024-02-28T01:20:05;29.50;;;17.20;;
32214;SDS011;18708;53.124;23.190;2024-02-28T01:22:35;27.35;;;18.33;;
32214;SDS011;18708;53.124;23.190;2024-02-28T01:25:01;27.45;;;17.05;;
32214;SDS011;18708;53.124;23.190;2024-02-28T01:27:28;28.15;;;17.52;;
32214;SDS011;18708;53.124;23.190;2024-02-28T01:29:54;28.52;;;18.08;;
32214;SDS011;18708;53.124;23.190;2024-02-28T01:32:19;30.23;;;18.30;;
32214;SDS011;18708;53.124;23.190;2024-02-28T01:34:45;27.70;;;17.58;;
32214;SDS011;18708;53.124;23.190;2024-02-28T01:37:11;26.00;;;17.52;;
32214;SDS011;18708;53.124;23.190;2024-02-28T01:39:37;27.27;;;16.90;;
32214;SDS011;18708;53.124;23.190;2024-02-28T01:42:03;28.02;;;18.02;;
32214;SDS011;18708;53.124;23.190;2024-02-28T01:44:28;29.35;;;17.52;;
32214;SDS011;18708;53.124;23.190;2024-02-28T01:46:54;29.27;;;18.17;;
32214;SDS011;18708;53.124;23.190;2024-02-28T01:49:22;24.70;;;16.00;;
32214;SDS011;18708;53.124;23.190;2024-02-28T01:51:48;31.60;;;17.23;;
32214;SDS011;18708;53.124;23.190;2024-02-28T01:54:15;26.70;;;15.65;;
32214;SDS011;18708;53.124;23.190;2024-02-28T01:56:43;26.98;;;16.80;;
32214;SDS011;18708;53.124;23.190;2024-02-28T01:59:10;28.42;;;18.30;;
32214;SDS011;18708;53.124;23.190;2024-02-28T02:01:39;28.77;;;17.73;;
32214;SDS011;18708;53.124;23.190;2024-02-28T02:04:05;27.85;;;18.10;;
32214;SDS011;18708;53.124;23.190;2024-02-28T02:06:31;29.42;;;19.63;;
32214;SDS011;18708;53.124;23.190;2024-02-28T02:08:58;29.80;;;18.83;;
32214;SDS011;18708;53.124;23.190;2024-02-28T02:11:24;31.83;;;19.00;;
32214;SDS011;18708;53.124;23.190;2024-02-28T02:13:50;32.08;;;19.70;;
32214;SDS011;18708;53.124;23.190;2024-02-28T02:16:18;34.38;;;19.75;;
32214;SDS011;18708;53.124;23.190;2024-02-28T02:18:44;29.17;;;18.10;;
32214;SDS011;18708;53.124;23.190;2024-02-28T02:21:11;30.48;;;18.30;;
32214;SDS011;18708;53.124;23.190;2024-02-28T02:23:40;32.42;;;19.27;;
32214;SDS011;18708;53.124;23.190;2024-02-28T02:26:06;30.98;;;18.65;;
32214;SDS011;18708;53.124;23.190;2024-02-28T02:28:32;37.72;;;18.38;;
32214;SDS011;18708;53.124;23.190;2024-02-28T02:30:58;33.10;;;19.38;;
32214;SDS011;18708;53.124;23.190;2024-02-28T02:33:24;31.20;;;18.90;;
32214;SDS011;18708;53.124;23.190;2024-02-28T02:35:51;34.15;;;19.38;;
32214;SDS011;18708;53.124;23.190;2024-02-28T02:38:17;30.42;;;20.35;;
32214;SDS011;18708;53.124;23.190;2024-02-28T02:40:43;28.42;;;19.13;;
32214;SDS011;18708;53.124;23.190;2024-02-28T02:43:08;32.33;;;19.50;;
32214;SDS011;18708;53.124;23.190;2024-02-28T02:45:34;34.25;;;19.67;;
32214;SDS011;18708;53.124;23.190;2024-02-28T02:48:00;31.85;;;19.73;;
32214;SDS011;18708;53.124;23.190;2024-02-28T02:50:26;35.80;;;19.27;;
32214;SDS011;18708;53.124;23.190;2024-02-28T02:52:51;34.28;;;19.35;;
32214;SDS011;18708;53.124;23.190;2024-02-28T02:55:17;33.35;;;18.70;;
32214;SDS011;18708;53.124;23.190;2024-02-28T02:57:43;32.83;;;19.52;;
32214;SDS011;18708;53.124;23.190;2024-02-28T03:00:09;33.10;;;19.45;;
32214;SDS011;18708;53.124;23.190;2024-02-28T03:02:35;35.40;;;20.13;;
32214;SDS011;18708;53.124;23.190;2024-02-28T03:05:03;32.13;;;18.55;;
32214;SDS011;18708;53.124;23.190;2024-02-28T03:07:29;29.38;;;18.63;;
32214;SDS011;18708;53.124;23.190;2024-02-28T03:09:55;28.70;;;18.65;;
32214;SDS011;18708;53.124;23.190;2024-02-28T03:12:21;27.73;;;18.02;;
32214;SDS011;18708;53.124;23.190;2024-02-28T03:14:47;30.05;;;19.33;;
32214;SDS011;18708;53.124;23.190;2024-02-28T03:17:13;36.30;;;19.95;;
32214;SDS011;18708;53.124;23.190;2024-02-28T03:19:40;31.23;;;19.75;;
32214;SDS011;18708;53.124;23.190;2024-02-28T03:22:06;31.17;;;19.35;;
32214;SDS011;18708;53.124;23.190;2024-02-28T03:24:32;32.75;;;20.05;;
32214;SDS011;18708;53.124;23.190;2024-02-28T03:27:00;36.10;;;20.15;;
32214;SDS011;18708;53.124;23.190;2024-02-28T03:29:27;32.33;;;20.85;;
32214;SDS011;18708;53.124;23.190;2024-02-28T03:31:53;38.00;;;20.80;;
32214;SDS011;18708;53.124;23.190;2024-02-28T03:34:18;33.90;;;20.67;;
32214;SDS011;18708;53.124;23.190;2024-02-28T03:36:44;27.95;;;18.23;;
32214;SDS011;18708;53.124;23.190;2024-02-28T03:39:10;33.33;;;19.50;;
32214;SDS011;18708;53.124;23.190;2024-02-28T03:41:35;31.08;;;19.90;;
32214;SDS011;18708;53.124;23.190;2024-02-28T03:44:01;36.50;;;20.00;;
32214;SDS011;18708;53.124;23.190;2024-02-28T03:46:27;31.48;;;19.90;;
32214;SDS011;18708;53.124;23.190;2024-02-28T03:48:52;33.97;;;20.55;;
32214;SDS011;18708;53.124;23.190;2024-02-28T03:51:18;33.25;;;20.52;;
32214;SDS011;18708;53.124;23.190;2024-02-28T03:53:44;35.67;;;20.17;;
32214;SDS011;18708;53.124;23.190;2024-02-28T03:56:09;35.67;;;20.95;;
32214;SDS011;18708;53.124;23.190;2024-02-28T03:58:36;35.67;;;20.70;;
32214;SDS011;18708;53.124;23.190;2024-02-28T04:01:02;35.08;;;20.98;;
32214;SDS011;18708;53.124;23.190;2024-02-28T04:03:28;35.25;;;20.35;;
32214;SDS011;18708;53.124;23.190;2024-02-28T04:05:54;36.53;;;20.65;;
32214;SDS011;18708;53.124;23.190;2024-02-28T04:08:19;35.15;;;20.92;;
32214;SDS011;18708;53.124;23.190;2024-02-28T04:10:45;36.25;;;20.25;;
32214;SDS011;18708;53.124;23.190;2024-02-28T04:13:11;37.03;;;21.00;;
32214;SDS011;18708;53.124;23.190;2024-02-28T04:15:37;33.58;;;20.15;;
32214;SDS011;18708;53.124;23.190;2024-02-28T04:18:03;32.58;;;20.10;;
32214;SDS011;18708;53.124;23.190;2024-02-28T04:20:29;36.75;;;22.58;;
32214;SDS011;18708;53.124;23.190;2024-02-28T04:22:55;34.42;;;18.85;;
32214;SDS011;18708;53.124;23.190;2024-02-28T04:25:20;48.03;;;24.77;;
32214;SDS011;18708;53.124;23.190;2024-02-28T04:27:46;45.42;;;28.25;;
32214;SDS011;18708;53.124;23.190;2024-02-28T04:30:12;46.20;;;29.23;;
32214;SDS011;18708;53.124;23.190;2024-02-28T04:32:38;37.17;;;25.00;;
32214;SDS011;18708;53.124;23.190;2024-02-28T04:35:04;41.63;;;26.50;;
32214;SDS011;18708;53.124;23.190;2024-02-28T04:37:29;53.33;;;37.65;;
32214;SDS011;18708;53.124;23.190;2024-02-28T04:39:55;49.72;;;31.48;;
32214;SDS011;18708;53.124;23.190;2024-02-28T04:42:21;46.00;;;26.13;;
32214;SDS011;18708;53.124;23.190;2024-02-28T04:44:46;50.55;;;30.35;;
32214;SDS011;18708;53.124;23.190;2024-02-28T04:47:12;45.25;;;26.17;;
32214;SDS011;18708;53.124;23.190;2024-02-28T04:49:38;53.00;;;39.47;;
32214;SDS011;18708;53.124;23.190;2024-02-28T04:52:04;51.78;;;37.95;;
32214;SDS011;18708;53.124;23.190;2024-02-28T04:54:30;71.38;;;48.97;;
32214;SDS011;18708;53.124;23.190;2024-02-28T04:56:56;74.90;;;53.92;;
32214;SDS011;18708;53.124;23.190;2024-02-28T04:59:22;59.25;;;41.45;;
32214;SDS011;18708;53.124;23.190;2024-02-28T05:01:47;68.65;;;51.17;;
32214;SDS011;18708;53.124;23.190;2024-02-28T05:04:13;55.30;;;38.00;;
32214;SDS011;18708;53.124;23.190;2024-02-28T05:06:39;48.45;;;32.85;;
32214;SDS011;18708;53.124;23.190;2024-02-28T05:09:05;53.33;;;32.13;;
32214;SDS011;18708;53.124;23.190;2024-02-28T05:11:30;53.33;;;34.67;;
32214;SDS011;18708;53.124;23.190;2024-02-28T05:13:58;47.40;;;30.23;;
32214;SDS011;18708;53.124;23.190;2024-02-28T05:16:24;52.38;;;30.02;;
32214;SDS011;18708;53.124;23.190;2024-02-28T05:18:50;51.80;;;31.52;;
32214;SDS011;18708;53.124;23.190;2024-02-28T05:21:15;71.20;;;50.50;;
32214;SDS011;18708;53.124;23.190;2024-02-28T05:23:41;48.65;;;29.23;;
32214;SDS011;18708;53.124;23.190;2024-02-28T05:26:07;78.57;;;61.97;;
32214;SDS011;18708;53.124;23.190;2024-02-28T05:28:33;70.95;;;46.08;;
32214;SDS011;18708;53.124;23.190;2024-02-28T05:31:01;70.90;;;49.75;;
32214;SDS011;18708;53.124;23.190;2024-02-28T05:33:28;62.22;;;35.88;;
32214;SDS011;18708;53.124;23.190;2024-02-28T05:35:54;61.17;;;38.60;;
32214;SDS011;18708;53.124;23.190;2024-02-28T05:38:20;71.32;;;42.92;;
32214;SDS011;18708;53.124;23.190;2024-02-28T05:40:45;62.33;;;38.00;;
32214;SDS011;18708;53.124;23.190;2024-02-28T05:43:11;53.13;;;31.70;;
32214;SDS011;18708;53.124;23.190;2024-02-28T05:45:37;50.22;;;29.98;;
32214;SDS011;18708;53.124;23.190;2024-02-28T05:48:02;49.63;;;30.13;;
32214;SDS011;18708;53.124;23.190;2024-02-28T05:50:28;49.03;;;31.52;;
32214;SDS011;18708;53.124;23.190;2024-02-28T05:52:55;50.08;;;29.95;;
32214;SDS011;18708;53.124;23.190;2024-02-28T05:55:20;57.85;;;36.92;;
32214;SDS011;18708;53.124;23.190;2024-02-28T05:57:49;61.75;;;38.05;;
32214;SDS011;18708;53.124;23.190;2024-02-28T06:00:14;59.95;;;33.08;;
32214;SDS011;18708;53.124;23.190;2024-02-28T06:02:40;49.53;;;29.48;;
32214;SDS011;18708;53.124;23.190;2024-02-28T06:05:07;51.88;;;28.77;;
32214;SDS011;18708;53.124;23.190;2024-02-28T06:23:15;61.72;;;35.10;;
32214;SDS011;18708;53.124;23.190;2024-02-28T06:25:42;73.10;;;50.00;;
32214;SDS011;18708;53.124;23.190;2024-02-28T06:28:08;59.78;;;31.85;;
32214;SDS011;18708;53.124;23.190;2024-02-28T06:30:35;60.13;;;32.42;;
32214;SDS011;18708;53.124;23.190;2024-02-28T06:33:00;60.95;;;31.85;;
32214;SDS011;18708;53.124;23.190;2024-02-28T06:35:26;57.28;;;31.20;;
32214;SDS011;18708;53.124;23.190;2024-02-28T06:37:52;56.20;;;30.45;;
32214;SDS011;18708;53.124;23.190;2024-02-28T06:40:18;55.42;;;30.05;;
32214;SDS011;18708;53.124;23.190;2024-02-28T06:42:45;48.53;;;27.48;;
32214;SDS011;18708;53.124;23.190;2024-02-28T06:45:10;44.05;;;27.42;;
32214;SDS011;18708;53.124;23.190;2024-02-28T06:47:36;42.03;;;26.27;;
32214;SDS011;18708;53.124;23.190;2024-02-28T06:50:04;45.60;;;26.27;;
32214;SDS011;18708;53.124;23.190;2024-02-28T06:52:31;43.13;;;25.60;;
32214;SDS011;18708;53.124;23.190;2024-02-28T06:54:58;41.00;;;25.45;;
32214;SDS011;18708;53.124;23.190;2024-02-28T06:57:25;43.58;;;26.65;;
32214;SDS011;18708;53.124;23.190;2024-02-28T06:59:51;51.03;;;29.38;;
32214;SDS011;18708;53.124;23.190;2024-02-28T07:02:17;57.13;;;33.08;;
32214;SDS011;18708;53.124;23.190;2024-02-28T07:04:42;47.97;;;27.70;;
32214;SDS011;18708;53.124;23.190;2024-02-28T07:07:08;44.25;;;24.40;;
32214;SDS011;18708;53.124;23.190;2024-02-28T07:09:34;39.15;;;24.45;;
32214;SDS011;18708;53.124;23.190;2024-02-28T07:12:02;38.72;;;23.60;;
32214;SDS011;18708;53.124;23.190;2024-02-28T07:14:28;43.15;;;23.17;;
32214;SDS011;18708;53.124;23.190;2024-02-28T07:16:54;36.20;;;22.25;;
32214;SDS011;18708;53.124;23.190;2024-02-28T07:19:20;42.65;;;23.65;;
32214;SDS011;18708;53.124;23.190;2024-02-28T07:21:46;34.85;;;21.48;;
32214;SDS011;18708;53.124;23.190;2024-02-28T07:24:11;41.35;;;24.35;;
32214;SDS011;18708;53.124;23.190;2024-02-28T07:26:37;35.70;;;22.65;;
32214;SDS011;18708;53.124;23.190;2024-02-28T07:29:04;37.53;;;22.80;;
32214;SDS011;18708;53.124;23.190;2024-02-28T07:31:30;36.38;;;21.42;;
32214;SDS011;18708;53.124;23.190;2024-02-28T07:33:56;35.75;;;21.45;;
32214;SDS011;18708;53.124;23.190;2024-02-28T07:36:22;37.15;;;24.20;;
32214;SDS011;18708;53.124;23.190;2024-02-28T07:38:47;39.38;;;22.77;;
32214;SDS011;18708;53.124;23.190;2024-02-28T07:41:17;39.20;;;22.35;;
32214;SDS011;18708;53.124;23.190;2024-02-28T07:43:43;37.83;;;21.95;;
32214;SDS011;18708;53.124;23.190;2024-02-28T07:46:09;40.78;;;22.83;;
32214;SDS011;18708;53.124;23.190;2024-02-28T07:48:36;42.75;;;24.38;;
32214;SDS011;18708;53.124;23.190;2024-02-28T07:51:05;38.65;;;24.55;;
32214;SDS011;18708;53.124;23.190;2024-02-28T07:53:34;46.35;;;26.23;;
32214;SDS011;18708;53.124;23.190;2024-02-28T07:56:00;44.22;;;24.17;;
32214;SDS011;18708;53.124;23.190;2024-02-28T07:58:26;40.47;;;24.45;;
32214;SDS011;18708;53.124;23.190;2024-02-28T08:00:51;32.85;;;22.00;;
32214;SDS011;18708;53.124;23.190;2024-02-28T08:03:17;39.33;;;24.33;;
32214;SDS011;18708;53.124;23.190;2024-02-28T08:05:43;38.90;;;22.77;;
32214;SDS011;18708;53.124;23.190;2024-02-28T08:08:09;37.22;;;22.17;;
32214;SDS011;18708;53.124;23.190;2024-02-28T08:10:37;37.20;;;21.45;;
32214;SDS011;18708;53.124;23.190;2024-02-28T08:13:03;34.22;;;23.40;;
32214;SDS011;18708;53.124;23.190;2024-02-28T08:15:29;33.63;;;21.42;;
32214;SDS011;18708;53.124;23.190;2024-02-28T08:17:56;34.10;;;22.17;;
32214;SDS011;18708;53.124;23.190;2024-02-28T08:20:22;34.53;;;22.08;;
32214;SDS011;18708;53.124;23.190;2024-02-28T08:22:48;35.20;;;21.20;;
32214;SDS011;18708;53.124;23.190;2024-02-28T08:25:13;31.85;;;20.65;;
32214;SDS011;18708;53.124;23.190;2024-02-28T08:27:39;33.40;;;21.50;;
32214;SDS011;18708;53.124;23.190;2024-02-28T08:30:05;35.75;;;21.83;;
32214;SDS011;18708;53.124;23.190;2024-02-28T08:32:31;34.47;;;21.27;;
32214;SDS011;18708;53.124;23.190;2024-02-28T08:34:58;34.35;;;22.27;;
32214;SDS011;18708;53.124;23.190;2024-02-28T08:37:24;39.10;;;21.98;;
32214;SDS011;18708;53.124;23.190;2024-02-28T08:39:50;31.58;;;20.70;;
32214;SDS011;18708;53.124;23.190;2024-02-28T08:42:15;33.90;;;20.98;;
32214;SDS011;18708;53.124;23.190;2024-02-28T08:44:41;31.10;;;20.60;;
32214;SDS011;18708;53.124;23.190;2024-02-28T08:47:07;35.50;;;22.17;;
32214;SDS011;18708;53.124;23.190;2024-02-28T08:49:34;36.75;;;21.40;;
32214;SDS011;18708;53.124;23.190;2024-02-28T08:52:00;33.67;;;21.58;;
32214;SDS011;18708;53.124;23.190;2024-02-28T08:54:27;36.03;;;21.23;;
32214;SDS011;18708;53.124;23.190;2024-02-28T08:56:52;36.58;;;20.63;;
32214;SDS011;18708;53.124;23.190;2024-02-28T08:59:18;35.20;;;20.92;;
32214;SDS011;18708;53.124;23.190;2024-02-28T09:01:44;35.47;;;20.52;;
32214;SDS011;18708;53.124;23.190;2024-02-28T09:04:10;33.10;;;19.67;;
32214;SDS011;18708;53.124;23.190;2024-02-28T09:06:36;31.30;;;21.05;;
32214;SDS011;18708;53.124;23.190;2024-02-28T09:09:01;37.67;;;21.30;;
32214;SDS011;18708;53.124;23.190;2024-02-28T09:11:28;31.23;;;19.80;;
32214;SDS011;18708;53.124;23.190;2024-02-28T09:13:54;36.53;;;20.35;;
32214;SDS011;18708;53.124;23.190;2024-02-28T09:16:20;30.30;;;19.65;;
32214;SDS011;18708;53.124;23.190;2024-02-28T09:18:45;35.13;;;20.70;;
32214;SDS011;18708;53.124;23.190;2024-02-28T09:21:11;36.85;;;22.13;;
32214;SDS011;18708;53.124;23.190;2024-02-28T09:23:37;35.85;;;20.08;;
32214;SDS011;18708;53.124;23.190;2024-02-28T09:26:05;37.70;;;21.38;;
32214;SDS011;18708;53.124;23.190;2024-02-28T09:28:31;36.15;;;21.48;;
32214;SDS011;18708;53.124;23.190;2024-02-28T09:30:57;36.80;;;22.30;;
32214;SDS011;18708;53.124;23.190;2024-02-28T09:33:23;34.17;;;20.67;;
32214;SDS011;18708;53.124;23.190;2024-02-28T09:35:49;34.55;;;22.58;;
32214;SDS011;18708;53.124;23.190;2024-02-28T09:38:14;37.45;;;21.98;;
32214;SDS011;18708;53.124;23.190;2024-02-28T09:40:40;40.08;;;22.08;;
32214;SDS011;18708;53.124;23.190;2024-02-28T09:43:10;37.38;;;21.33;;
32214;SDS011;18708;53.124;23.190;2024-02-28T09:45:40;34.30;;;21.13;;
32214;SDS011;18708;53.124;23.190;2024-02-28T09:48:06;31.75;;;21.75;;
32214;SDS011;18708;53.124;23.190;2024-02-28T09:50:34;35.67;;;23.58;;
32214;SDS011;18708;53.124;23.190;2024-02-28T09:53:00;39.58;;;23.75;;
32214;SDS011;18708;53.124;23.190;2024-02-28T09:55:26;42.08;;;22.90;;
32214;SDS011;18708;53.124;23.190;2024-02-28T09:57:52;42.40;;;24.17;;
32214;SDS011;18708;53.124;23.190;2024-02-28T10:00:19;35.55;;;22.55;;
32214;SDS011;18708;53.124;23.190;2024-02-28T10:02:46;38.22;;;23.88;;
32214;SDS011;18708;53.124;23.190;2024-02-28T10:05:14;36.85;;;23.33;;
32214;SDS011;18708;53.124;23.190;2024-02-28T10:07:40;39.17;;;22.55;;
32214;SDS011;18708;53.124;23.190;2024-02-28T10:10:07;34.22;;;21.55;;
32214;SDS011;18708;53.124;23.190;2024-02-28T10:12:36;39.55;;;22.50;;
32214;SDS011;18708;53.124;23.190;2024-02-28T10:15:09;37.13;;;21.88;;
32214;SDS011;18708;53.124;23.190;2024-02-28T10:17:35;34.83;;;22.45;;
32214;SDS011;18708;53.124;23.190;2024-02-28T10:20:01;39.13;;;22.13;;
32214;SDS011;18708;53.124;23.190;2024-02-28T10:22:33;32.38;;;22.33;;
32214;SDS011;18708;53.124;23.190;2024-02-28T10:25:00;31.95;;;21.92;;
32214;SDS011;18708;53.124;23.190;2024-02-28T10:27:26;33.55;;;22.25;;
32214;SDS011;18708;53.124;23.190;2024-02-28T10:29:52;39.03;;;23.35;;
32214;SDS011;18708;53.124;23.190;2024-02-28T10:32:17;44.95;;;22.25;;
32214;SDS011;18708;53.124;23.190;2024-02-28T10:34:44;35.55;;;22.00;;
32214;SDS011;18708;53.124;23.190;2024-02-28T10:37:10;33.38;;;21.90;;
32214;SDS011;18708;53.124;23.190;2024-02-28T10:39:37;36.38;;;22.25;;
32214;SDS011;18708;53.124;23.190;2024-02-28T10:42:03;40.13;;;21.63;;
32214;SDS011;18708;53.124;23.190;2024-02-28T10:44:31;31.45;;;21.75;;
32214;SDS011;18708;53.124;23.190;2024-02-28T10:47:00;37.75;;;22.00;;
32214;SDS011;18708;53.124;23.190;2024-02-28T10:49:27;34.67;;;21.67;;
32214;SDS011;18708;53.124;23.190;2024-02-28T10:51:53;36.67;;;21.50;;
32214;SDS011;18708;53.124;23.190;2024-02-28T10:54:21;33.10;;;21.13;;
32214;SDS011;18708;53.124;23.190;2024-02-28T10:56:51;31.55;;;21.70;;
32214;SDS011;18708;53.124;23.190;2024-02-28T10:59:18;32.35;;;21.25;;
32214;SDS011;18708;53.124;23.190;2024-02-28T11:01:48;37.53;;;22.55;;
32214;SDS011;18708;53.124;23.190;2024-02-28T11:04:15;37.25;;;22.98;;
32214;SDS011;18708;53.124;23.190;2024-02-28T11:06:49;37.30;;;23.55;;
32214;SDS011;18708;53.124;23.190;2024-02-28T11:09:19;32.20;;;22.05;;
32214;SDS011;18708;53.124;23.190;2024-02-28T11:11:47;34.05;;;22.30;;
32214;SDS011;18708;53.124;23.190;2024-02-28T11:14:14;34.50;;;21.98;;
32214;SDS011;18708;53.124;23.190;2024-02-28T11:16:41;39.15;;;23.17;;
32214;SDS011;18708;53.124;23.190;2024-02-28T11:19:19;35.40;;;24.23;;
32214;SDS011;18708;53.124;23.190;2024-02-28T11:21:52;32.80;;;23.27;;
32214;SDS011;18708;53.124;23.190;2024-02-28T11:24:22;40.60;;;24.25;;
32214;SDS011;18708;53.124;23.190;2024-02-28T11:26:50;39.75;;;23.77;;
32214;SDS011;18708;53.124;23.190;2024-02-28T11:29:22;37.65;;;23.52;;
32214;SDS011;18708;53.124;23.190;2024-02-28T11:31:51;37.28;;;24.63;;
32214;SDS011;18708;53.124;23.190;2024-02-28T11:34:18;36.78;;;25.30;;
32214;SDS011;18708;53.124;23.190;2024-02-28T11:36:46;37.45;;;24.42;;
32214;SDS011;18708;53.124;23.190;2024-02-28T11:39:14;38.88;;;25.23;;
32214;SDS011;18708;53.124;23.190;2024-02-28T11:41:40;37.20;;;23.40;;
32214;SDS011;18708;53.124;23.190;2024-02-28T11:44:06;48.40;;;24.02;;
32214;SDS011;18708;53.124;23.190;2024-02-28T11:46:32;37.17;;;24.33;;
32214;SDS011;18708;53.124;23.190;2024-02-28T11:48:58;40.97;;;25.20;;
32214;SDS011;18708;53.124;23.190;2024-02-28T11:51:26;39.53;;;25.05;;
32214;SDS011;18708;53.124;23.190;2024-02-28T11:53:51;40.85;;;24.55;;
32214;SDS011;18708;53.124;23.190;2024-02-28T11:56:17;39.53;;;25.05;;
32214;SDS011;18708;53.124;23.190;2024-02-28T11:58:49;37.80;;;23.88;;
32214;SDS011;18708;53.124;23.190;2024-02-28T12:01:16;38.25;;;24.95;;
32214;SDS011;18708;53.124;23.190;2024-02-28T12:03:44;39.20;;;23.90;;
32214;SDS011;18708;53.124;23.190;2024-02-28T12:06:11;35.03;;;24.23;;
32214;SDS011;18708;53.124;23.190;2024-02-28T12:08:37;44.45;;;24.48;;
32214;SDS011;18708;53.124;23.190;2024-02-28T12:11:06;39.38;;;25.90;;
32214;SDS011;18708;53.124;23.190;2024-02-28T12:13:33;37.42;;;25.40;;
32214;SDS011;18708;53.124;23.190;2024-02-28T12:16:00;41.72;;;25.67;;
32214;SDS011;18708;53.124;23.190;2024-02-28T12:18:26;37.92;;;24.13;;
32214;SDS011;18708;53.124;23.190;2024-02-28T12:20:55;37.88;;;25.65;;
32214;SDS011;18708;53.124;23.190;2024-02-28T12:23:21;39.47;;;25.77;;
32214;SDS011;18708;53.124;23.190;2024-02-28T12:25:47;41.42;;;25.80;;
32214;SDS011;18708;53.124;23.190;2024-02-28T12:28:13;39.08;;;26.30;;
32214;SDS011;18708;53.124;23.190;2024-02-28T12:30:41;40.30;;;26.35;;
32214;SDS011;18708;53.124;23.190;2024-02-28T12:33:08;40.08;;;26.13;;
32214;SDS011;18708;53.124;23.190;2024-02-28T12:35:36;38.90;;;26.88;;
32214;SDS011;18708;53.124;23.190;2024-02-28T12:38:02;38.67;;;26.67;;
32214;SDS011;18708;53.124;23.190;2024-02-28T12:40:28;36.67;;;25.27;;
32214;SDS011;18708;53.124;23.190;2024-02-28T12:42:53;37.38;;;25.52;;
32214;SDS011;18708;53.124;23.190;2024-02-28T12:45:19;42.45;;;27.42;;
32214;SDS011;18708;53.124;23.190;2024-02-28T12:47:45;38.00;;;26.98;;
32214;SDS011;18708;53.124;23.190;2024-02-28T12:50:10;41.28;;;25.92;;
32214;SDS011;18708;53.124;23.190;2024-02-28T12:52:36;37.05;;;25.33;;
32214;SDS011;18708;53.124;23.190;2024-02-28T12:55:02;41.30;;;28.08;;
32214;SDS011;18708;53.124;23.190;2024-02-28T12:57:28;41.20;;;27.00;;
32214;SDS011;18708;53.124;23.190;2024-02-28T12:59:53;39.83;;;27.70;;
32214;SDS011;18708;53.124;23.190;2024-02-28T13:02:20;38.17;;;26.27;;
32214;SDS011;18708;53.124;23.190;2024-02-28T13:04:47;41.67;;;27.92;;
32214;SDS011;18708;53.124;23.190;2024-02-28T13:07:13;42.78;;;29.38;;
32214;SDS011;18708;53.124;23.190;2024-02-28T13:09:39;43.97;;;28.35;;
32214;SDS011;18708;53.124;23.190;2024-02-28T13:12:05;42.08;;;29.42;;
32214;SDS011;18708;53.124;23.190;2024-02-28T13:14:32;41.65;;;28.13;;
32214;SDS011;18708;53.124;23.190;2024-02-28T13:16:58;44.58;;;28.55;;
32214;SDS011;18708;53.124;23.190;2024-02-28T13:19:24;40.25;;;27.40;;
32214;SDS011;18708;53.124;23.190;2024-02-28T13:21:50;45.65;;;29.80;;
32214;SDS011;18708;53.124;23.190;2024-02-28T13:24:15;42.42;;;31.08;;
32214;SDS011;18708;53.124;23.190;2024-02-28T13:26:42;47.80;;;32.90;;
32214;SDS011;18708;53.124;23.190;2024-02-28T13:29:07;44.40;;;29.85;;
32214;SDS011;18708;53.124;23.190;2024-02-28T13:31:34;44.05;;;31.45;;
32214;SDS011;18708;53.124;23.190;2024-02-28T13:34:00;45.25;;;33.92;;
32214;SDS011;18708;53.124;23.190;2024-02-28T13:36:28;47.30;;;32.97;;
32214;SDS011;18708;53.124;23.190;2024-02-28T13:38:55;46.75;;;32.38;;
32214;SDS011;18708;53.124;23.190;2024-02-28T13:41:21;46.70;;;30.17;;
32214;SDS011;18708;53.124;23.190;2024-02-28T13:43:46;49.75;;;32.35;;
32214;SDS011;18708;53.124;23.190;2024-02-28T13:46:12;48.22;;;31.10;;
32214;SDS011;18708;53.124;23.190;2024-02-28T13:48:39;50.30;;;33.20;;
32214;SDS011;18708;53.124;23.190;2024-02-28T13:51:05;50.83;;;32.95;;
32214;SDS011;18708;53.124;23.190;2024-02-28T13:53:31;48.97;;;33.65;;
32214;SDS011;18708;53.124;23.190;2024-02-28T13:55:56;52.63;;;34.70;;
32214;SDS011;18708;53.124;23.190;2024-02-28T13:58:22;43.25;;;32.25;;
32214;SDS011;18708;53.124;23.190;2024-02-28T14:00:48;46.25;;;32.30;;
32214;SDS011;18708;53.124;23.190;2024-02-28T14:03:13;46.40;;;32.35;;
32214;SDS011;18708;53.124;23.190;2024-02-28T14:05:39;49.40;;;31.55;;
32214;SDS011;18708;53.124;23.190;2024-02-28T14:08:06;48.55;;;33.65;;
32214;SDS011;18708;53.124;23.190;2024-02-28T14:10:33;49.13;;;34.28;;
32214;SDS011;18708;53.124;23.190;2024-02-28T14:13:00;50.65;;;33.25;;
32214;SDS011;18708;53.124;23.190;2024-02-28T14:15:26;49.30;;;33.47;;
32214;SDS011;18708;53.124;23.190;2024-02-28T14:17:52;48.88;;;33.30;;
32214;SDS011;18708;53.124;23.190;2024-02-28T14:20:17;45.67;;;33.38;;